createdAt,value
2018-08-20T00:00:51.401Z,66.41
2018-08-20T00:05:59.203Z,68.52
2018-08-20T00:10:55.501Z,69.80
2018-08-20T00:15:48.415Z,70.05
2018-08-20T00:20:41.388Z,68.94
2018-08-20T00:25:34.470Z,68.59
2018-08-20T00:30:27.402Z,67.58
2018-08-20T00:35:20.530Z,67.02
2018-08-20T00:40:13.486Z,65.43
2018-08-20T00:45:06.638Z,65.28
2018-08-20T00:49:59.635Z,65.61
2018-08-20T00:54:52.681Z,65.81
2018-08-20T00:59:45.632Z,64.29
2018-08-20T01:04:38.695Z,64.24
2018-08-20T01:09:31.597Z,66.57
2018-08-20T01:14:24.713Z,67.25
2018-08-20T01:19:18.042Z,68.55
2018-08-20T01:24:11.689Z,67.49
2018-08-20T01:29:04.803Z,67.67
2018-08-20T01:33:57.725Z,68.49
2018-08-20T01:38:50.693Z,68.86
2018-08-20T01:43:43.668Z,66.21
2018-08-20T01:48:36.620Z,67.95
2018-08-20T01:53:29.770Z,67.32
2018-08-20T01:58:22.714Z,66.24
2018-08-20T02:03:15.749Z,65.34
2018-08-20T02:08:08.850Z,66.23
2018-08-20T02:13:01.800Z,66.48
2018-08-20T02:17:55.448Z,65.86
2018-08-20T02:22:48.532Z,66.41
2018-08-20T02:27:41.542Z,66.07
2018-08-20T02:32:34.830Z,66.87
2018-08-20T02:37:31.856Z,67.04
2018-08-20T02:42:24.938Z,67.12
2018-08-20T02:47:17.965Z,66.92
2018-08-20T02:52:10.907Z,67.89
2018-08-20T02:57:03.931Z,67.38
2018-08-20T03:01:57.063Z,68.25
2018-08-20T03:06:50.016Z,68.92
2018-08-20T03:11:43.111Z,70.05
2018-08-20T03:16:36.622Z,71.06
2018-08-20T03:21:29.813Z,71.77
2018-08-20T03:26:22.789Z,72.01
2018-08-20T03:31:15.790Z,72.19
2018-08-20T03:36:08.905Z,72.44
2018-08-20T03:41:01.985Z,72.92
2018-08-20T03:45:55.134Z,73.54
2018-08-20T03:50:48.189Z,73.58
2018-08-20T03:55:41.181Z,73.46
2018-08-20T04:00:34.353Z,72.77
2018-08-20T04:05:27.419Z,71.79
2018-08-20T04:10:20.382Z,71.57
2018-08-20T04:15:13.281Z,70.76
2018-08-20T04:20:07.187Z,70.21
2018-08-20T04:25:00.311Z,69.11
2018-08-20T04:29:54.147Z,68.79
2018-08-20T04:34:47.117Z,67.89
2018-08-20T04:39:41.115Z,65.45
2018-08-20T04:44:35.740Z,64.30
2018-08-20T04:49:28.809Z,63.99
2018-08-20T04:54:21.802Z,62.66
2018-08-20T04:59:14.838Z,63.00
2018-08-20T05:04:07.938Z,62.13
2018-08-20T05:09:01.613Z,61.56
2018-08-20T05:13:54.998Z,60.35
2018-08-20T05:18:47.983Z,59.64
2018-08-20T05:23:40.951Z,58.68
2018-08-20T05:28:33.950Z,57.80
2018-08-20T05:33:26.929Z,56.40
2018-08-20T05:38:20.425Z,55.69
2018-08-20T05:43:13.415Z,55.04
2018-08-20T05:48:06.633Z,54.30
2018-08-20T05:52:59.675Z,54.03
2018-08-20T05:57:53.477Z,53.06
2018-08-20T06:02:46.963Z,51.48
2018-08-20T06:07:40.199Z,50.22
2018-08-20T06:12:33.571Z,48.06
2018-08-20T06:17:26.608Z,49.06
2018-08-20T06:22:19.580Z,48.03
2018-08-20T06:27:12.736Z,47.84
2018-08-20T06:32:06.096Z,46.34
2018-08-20T06:36:59.212Z,46.42
2018-08-20T06:41:52.302Z,46.04
2018-08-20T06:46:45.339Z,46.42
2018-08-20T06:51:38.837Z,45.82
2018-08-20T06:56:31.830Z,44.57
2018-08-20T07:01:25.125Z,44.74
2018-08-20T07:06:19.248Z,43.60
2018-08-20T07:11:12.249Z,42.41
2018-08-20T07:16:06.552Z,41.54
2018-08-20T07:20:59.545Z,40.78
2018-08-20T07:25:53.197Z,42.01
2018-08-20T07:30:46.362Z,41.18
2018-08-20T07:35:39.601Z,40.71
2018-08-20T07:40:33.159Z,38.29
2018-08-20T07:45:26.153Z,36.64
2018-08-20T07:50:19.152Z,38.38
2018-08-20T07:55:12.122Z,37.65
2018-08-20T08:00:07.354Z,36.37
2018-08-20T08:05:00.454Z,34.78
2018-08-20T08:09:53.497Z,36.17
2018-08-20T08:14:47.460Z,34.96
2018-08-20T08:19:40.754Z,35.77
2018-08-20T08:24:33.666Z,36.78
2018-08-20T08:29:26.869Z,36.18
2018-08-20T08:34:19.852Z,32.37
2018-08-20T08:39:13.023Z,33.90
2018-08-20T08:44:06.250Z,34.81
2018-08-20T08:48:59.302Z,32.48
2018-08-20T08:53:52.461Z,29.00
2018-08-20T08:58:45.500Z,30.46
2018-08-20T09:03:38.628Z,29.87
2018-08-20T09:08:32.522Z,30.00
2018-08-20T09:13:28.609Z,28.53
2018-08-20T09:18:21.663Z,28.56
2018-08-20T09:23:14.820Z,28.42
2018-08-20T09:28:07.890Z,29.23
2018-08-20T09:33:00.926Z,30.97
2018-08-20T09:37:54.126Z,29.50
2018-08-20T09:42:47.064Z,29.36
2018-08-20T09:47:40.940Z,29.51
2018-08-20T09:52:33.994Z,31.14
2018-08-20T09:57:27.056Z,30.84
2018-08-20T10:02:20.019Z,29.86
2018-08-20T10:07:13.533Z,31.65
2018-08-20T10:12:06.680Z,30.87
2018-08-20T10:16:59.841Z,31.73
2018-08-20T10:21:53.945Z,31.07
2018-08-20T10:26:47.444Z,31.36
2018-08-20T10:31:40.438Z,30.86
2018-08-20T10:36:33.808Z,32.35
2018-08-20T10:41:26.785Z,32.93
2018-08-20T10:46:24.239Z,32.42
2018-08-20T10:51:17.246Z,33.16
2018-08-20T10:56:10.255Z,31.91
2018-08-20T11:01:03.482Z,32.30
2018-08-20T11:05:56.535Z,32.55
2018-08-20T11:10:49.669Z,31.21
2018-08-20T11:15:42.676Z,31.85
2018-08-20T11:20:35.647Z,32.79
2018-08-20T11:25:28.740Z,30.95
2018-08-20T11:30:22.129Z,30.03
2018-08-20T11:35:15.077Z,30.38
2018-08-20T11:40:08.685Z,31.21
2018-08-20T11:45:01.851Z,31.93
2018-08-20T11:49:54.885Z,30.65
2018-08-20T11:54:47.894Z,31.88
2018-08-20T11:59:40.843Z,31.42
2018-08-20T12:04:33.795Z,30.79
2018-08-20T12:09:26.804Z,31.37
2018-08-20T12:14:19.838Z,30.84
2018-08-20T12:19:12.854Z,31.59
2018-08-20T12:24:06.532Z,31.34
2018-08-20T12:29:00.112Z,31.36
2018-08-20T12:33:53.111Z,31.55
2018-08-20T12:38:46.117Z,32.02
2018-08-20T12:43:39.854Z,31.60
2018-08-20T12:48:35.861Z,31.00
2018-08-20T12:53:28.911Z,32.41
2018-08-20T12:58:22.121Z,32.87
2018-08-20T13:03:15.127Z,32.27
2018-08-20T13:08:10.199Z,31.16
2018-08-20T13:13:04.087Z,31.59
2018-08-20T13:17:57.233Z,32.44
2018-08-20T13:22:50.367Z,31.74
2018-08-20T13:27:43.436Z,31.69
2018-08-20T13:32:36.466Z,32.06
2018-08-20T13:37:30.096Z,33.08
2018-08-20T13:42:23.098Z,31.52
2018-08-20T13:47:16.125Z,30.17
2018-08-20T13:52:09.100Z,30.42
2018-08-20T13:57:02.110Z,31.20
2018-08-20T14:01:55.144Z,30.18
2018-08-20T14:06:48.108Z,29.08
2018-08-20T14:11:41.172Z,28.46
2018-08-20T14:16:34.200Z,29.06
2018-08-20T14:21:27.156Z,30.08
2018-08-20T14:26:20.312Z,30.00
2018-08-20T14:31:13.349Z,29.15
2018-08-20T14:36:06.940Z,29.08
2018-08-20T14:41:00.984Z,29.63
2018-08-20T14:45:59.557Z,30.03
2018-08-20T14:50:52.616Z,28.09
2018-08-20T14:55:45.760Z,26.97
2018-08-20T15:00:38.838Z,28.21
2018-08-20T15:05:31.936Z,26.69
2018-08-20T15:10:25.214Z,27.28
2018-08-20T15:15:18.404Z,28.07
2018-08-20T15:20:11.368Z,27.27
2018-08-20T15:25:04.714Z,28.73
2018-08-20T15:29:57.651Z,28.24
2018-08-20T15:34:50.664Z,28.76
2018-08-20T15:39:43.590Z,29.17
2018-08-20T15:44:37.594Z,29.39
2018-08-20T15:49:30.655Z,30.57
2018-08-20T15:54:23.631Z,29.25
2018-08-20T15:59:16.716Z,29.19
2018-08-20T16:04:09.768Z,31.12
2018-08-20T16:09:03.328Z,32.09
2018-08-20T16:13:56.379Z,32.84
2018-08-20T16:18:52.050Z,33.79
2018-08-20T16:23:51.608Z,34.58
2018-08-20T16:28:44.615Z,35.24
2018-08-20T16:33:37.635Z,34.97
2018-08-20T16:38:30.727Z,35.87
2018-08-20T16:43:23.814Z,36.64
2018-08-20T16:48:17.443Z,36.28
2018-08-20T16:53:10.462Z,37.21
2018-08-20T16:58:04.408Z,37.40
2018-08-20T17:02:57.722Z,37.69
2018-08-20T17:07:50.851Z,38.53
2018-08-20T17:12:43.871Z,38.35
2018-08-20T17:17:37.204Z,38.96
2018-08-20T17:22:30.255Z,39.49
2018-08-20T17:27:23.359Z,40.35
2018-08-20T17:32:16.396Z,40.71
2018-08-20T17:37:09.805Z,40.75
2018-08-20T17:42:02.933Z,41.23
2018-08-20T17:46:56.028Z,41.83
2018-08-20T17:51:49.725Z,42.58
2018-08-20T17:56:43.331Z,43.01
2018-08-20T18:01:37.514Z,43.63
2018-08-20T18:06:44.845Z,45.26
2018-08-20T18:11:42.361Z,46.54
2018-08-20T18:16:35.326Z,47.71
2018-08-20T18:21:28.379Z,47.82
2018-08-20T18:27:53.976Z,48.51
2018-08-20T18:32:47.014Z,48.99
2018-08-20T18:37:50.581Z,49.27
2018-08-20T18:42:46.968Z,50.05
2018-08-20T18:47:40.117Z,51.08
2018-08-20T18:52:33.272Z,50.89
2018-08-20T18:57:29.049Z,52.10
2018-08-20T19:02:33.988Z,52.46
2018-08-20T19:07:27.142Z,53.16
2018-08-20T19:12:20.251Z,54.22
2018-08-20T19:17:18.194Z,54.07
2018-08-20T19:22:17.148Z,54.46
2018-08-20T19:27:11.045Z,55.76
2018-08-20T19:32:04.044Z,55.75
2018-08-20T19:36:57.215Z,56.26
2018-08-20T19:41:50.362Z,56.99
2018-08-20T19:46:43.410Z,56.89
2018-08-20T19:51:38.293Z,57.24
2018-08-20T19:56:31.266Z,56.57
2018-08-20T20:01:25.314Z,57.21
2018-08-20T20:06:18.424Z,57.41
2018-08-20T20:11:19.281Z,57.97
2018-08-20T20:16:12.302Z,58.03
2018-08-20T20:21:05.396Z,57.97
2018-08-20T20:25:58.321Z,58.46
2018-08-20T20:30:51.379Z,58.36
2018-08-20T20:35:45.336Z,58.95
2018-08-20T20:40:38.380Z,58.96
2018-08-20T20:45:31.362Z,59.28
2018-08-20T20:50:27.009Z,59.59
2018-08-20T20:55:20.140Z,60.61
2018-08-20T21:00:13.089Z,60.76
2018-08-20T21:05:09.864Z,61.26
2018-08-20T21:10:02.998Z,61.83
2018-08-20T21:14:55.987Z,62.16
2018-08-20T21:19:48.977Z,61.76
2018-08-20T21:24:42.023Z,61.80
2018-08-20T21:29:34.972Z,62.18
2018-08-20T21:34:31.372Z,62.85
2018-08-20T21:39:24.427Z,63.43
2018-08-20T21:44:17.442Z,63.49
2018-08-20T21:49:11.057Z,63.75
2018-08-20T21:54:04.207Z,63.94
2018-08-20T21:58:57.216Z,64.59
2018-08-20T22:03:50.278Z,64.66
2018-08-20T22:08:43.395Z,64.48
2018-08-20T22:13:36.414Z,64.90
2018-08-20T22:18:34.122Z,65.12
2018-08-20T22:23:39.082Z,65.26
2018-08-20T22:28:20.159Z,66.62
2018-08-20T22:33:13.112Z,66.56
2018-08-20T22:38:06.697Z,66.68
2018-08-20T22:42:59.701Z,66.17
2018-08-20T22:47:52.818Z,66.54
2018-08-20T22:52:47.447Z,66.47
2018-08-20T22:57:49.354Z,65.90
2018-08-20T23:02:42.369Z,66.46
2018-08-20T23:07:35.370Z,66.72
2018-08-20T23:12:32.860Z,66.59
2018-08-20T23:17:25.826Z,66.79
2018-08-20T23:22:18.960Z,67.27
2018-08-20T23:27:11.947Z,66.93
2018-08-20T23:32:04.999Z,68.22
2018-08-20T23:36:57.934Z,68.61
2018-08-20T23:41:51.907Z,68.80
2018-08-20T23:46:46.642Z,69.24
2018-08-20T23:51:39.752Z,69.73
2018-08-20T23:56:32.804Z,69.48
